sensor_id;sensor_type;location;lat;lon;timestamp;P1;durP1;ratioP1;P2;durP2;ratioP2
77105;SDS011;66057;54.718;18.426;2023-04-24T00:00:22;11.68;;;7.25;;
77105;SDS011;66057;54.718;18.426;2023-04-24T00:03:07;9.40;;;6.30;;
77105;SDS011;66057;54.718;18.426;2023-04-24T00:05:33;11.50;;;7.38;;
77105;SDS011;66057;54.718;18.426;2023-04-24T00:08:00;11.20;;;7.28;;
77105;SDS011;66057;54.718;18.426;2023-04-24T00:10:27;9.48;;;6.60;;
77105;SDS011;66057;54.718;18.426;2023-04-24T00:12:53;10.10;;;6.68;;
77105;SDS011;66057;54.718;18.426;2023-04-24T00:15:19;9.82;;;6.57;;
77105;SDS011;66057;54.718;18.426;2023-04-24T00:17:44;12.05;;;7.63;;
77105;SDS011;66057;54.718;18.426;2023-04-24T00:20:10;12.75;;;7.78;;
77105;SDS011;66057;54.718;18.426;2023-04-24T00:25:03;11.48;;;7.35;;
77105;SDS011;66057;54.718;18.426;2023-04-24T00:27:28;11.15;;;6.80;;
77105;SDS011;66057;54.718;18.426;2023-04-24T00:29:54;9.55;;;6.47;;
77105;SDS011;66057;54.718;18.426;2023-04-24T00:32:20;11.88;;;6.35;;
77105;SDS011;66057;54.718;18.426;2023-04-24T00:34:46;13.02;;;6.97;;
77105;SDS011;66057;54.718;18.426;2023-04-24T00:37:11;11.60;;;6.47;;
77105;SDS011;66057;54.718;18.426;2023-04-24T00:39:38;11.00;;;7.13;;
77105;SDS011;66057;54.718;18.426;2023-04-24T00:42:04;9.55;;;6.32;;
77105;SDS011;66057;54.718;18.426;2023-04-24T00:44:32;11.45;;;6.30;;
77105;SDS011;66057;54.718;18.426;2023-04-24T00:49:24;10.00;;;5.80;;
77105;SDS011;66057;54.718;18.426;2023-04-24T00:51:50;9.13;;;6.05;;
77105;SDS011;66057;54.718;18.426;2023-04-24T00:54:17;8.45;;;5.43;;
77105;SDS011;66057;54.718;18.426;2023-04-24T00:56:44;9.48;;;4.78;;
77105;SDS011;66057;54.718;18.426;2023-04-24T00:59:11;9.85;;;6.05;;
77105;SDS011;66057;54.718;18.426;2023-04-24T01:01:38;8.85;;;6.50;;
77105;SDS011;66057;54.718;18.426;2023-04-24T01:04:07;11.07;;;6.15;;
77105;SDS011;66057;54.718;18.426;2023-04-24T01:06:35;10.98;;;6.88;;
77105;SDS011;66057;54.718;18.426;2023-04-24T01:09:05;9.68;;;6.97;;
77105;SDS011;66057;54.718;18.426;2023-04-24T01:11:33;11.18;;;6.70;;
77105;SDS011;66057;54.718;18.426;2023-04-24T01:13:59;11.38;;;6.80;;
77105;SDS011;66057;54.718;18.426;2023-04-24T01:16:25;11.23;;;6.72;;
77105;SDS011;66057;54.718;18.426;2023-04-24T01:18:51;10.45;;;6.88;;
77105;SDS011;66057;54.718;18.426;2023-04-24T01:21:17;13.32;;;6.03;;
77105;SDS011;66057;54.718;18.426;2023-04-24T01:23:44;9.73;;;6.57;;
77105;SDS011;66057;54.718;18.426;2023-04-24T01:26:10;10.40;;;5.75;;
77105;SDS011;66057;54.718;18.426;2023-04-24T01:28:39;10.50;;;6.32;;
77105;SDS011;66057;54.718;18.426;2023-04-24T01:31:05;8.82;;;6.18;;
77105;SDS011;66057;54.718;18.426;2023-04-24T01:33:31;10.02;;;6.45;;
77105;SDS011;66057;54.718;18.426;2023-04-24T01:35:58;9.23;;;5.63;;
77105;SDS011;66057;54.718;18.426;2023-04-24T01:38:25;11.60;;;6.43;;
77105;SDS011;66057;54.718;18.426;2023-04-24T01:40:51;8.02;;;5.88;;
77105;SDS011;66057;54.718;18.426;2023-04-24T01:43:17;10.43;;;5.88;;
77105;SDS011;66057;54.718;18.426;2023-04-24T01:45:43;9.73;;;6.38;;
77105;SDS011;66057;54.718;18.426;2023-04-24T01:48:09;8.77;;;5.05;;
77105;SDS011;66057;54.718;18.426;2023-04-24T01:53:01;8.70;;;5.07;;
77105;SDS011;66057;54.718;18.426;2023-04-24T01:55:27;9.63;;;6.38;;
77105;SDS011;66057;54.718;18.426;2023-04-24T01:57:54;10.10;;;6.88;;
77105;SDS011;66057;54.718;18.426;2023-04-24T02:00:21;9.60;;;6.60;;
77105;SDS011;66057;54.718;18.426;2023-04-24T02:02:47;11.68;;;7.03;;
77105;SDS011;66057;54.718;18.426;2023-04-24T02:05:12;12.15;;;6.95;;
77105;SDS011;66057;54.718;18.426;2023-04-24T02:07:38;9.00;;;6.10;;
77105;SDS011;66057;54.718;18.426;2023-04-24T02:10:05;10.07;;;7.18;;
77105;SDS011;66057;54.718;18.426;2023-04-24T02:12:31;10.40;;;6.55;;
77105;SDS011;66057;54.718;18.426;2023-04-24T02:14:57;10.45;;;6.95;;
77105;SDS011;66057;54.718;18.426;2023-04-24T02:17:23;11.45;;;6.38;;
77105;SDS011;66057;54.718;18.426;2023-04-24T02:19:49;12.40;;;7.50;;
77105;SDS011;66057;54.718;18.426;2023-04-24T02:24:41;9.13;;;6.13;;
77105;SDS011;66057;54.718;18.426;2023-04-24T02:27:07;10.48;;;6.50;;
77105;SDS011;66057;54.718;18.426;2023-04-24T02:29:32;12.15;;;6.80;;
77105;SDS011;66057;54.718;18.426;2023-04-24T02:31:58;8.85;;;6.55;;
77105;SDS011;66057;54.718;18.426;2023-04-24T02:34:24;11.07;;;6.63;;
77105;SDS011;66057;54.718;18.426;2023-04-24T02:36:51;10.23;;;6.57;;
77105;SDS011;66057;54.718;18.426;2023-04-24T02:39:19;10.15;;;6.05;;
77105;SDS011;66057;54.718;18.426;2023-04-24T02:41:44;9.85;;;6.50;;
77105;SDS011;66057;54.718;18.426;2023-04-24T02:44:11;8.82;;;5.53;;
77105;SDS011;66057;54.718;18.426;2023-04-24T02:46:37;8.75;;;5.82;;
77105;SDS011;66057;54.718;18.426;2023-04-24T02:49:02;9.60;;;6.70;;
77105;SDS011;66057;54.718;18.426;2023-04-24T02:51:29;11.68;;;6.80;;
77105;SDS011;66057;54.718;18.426;2023-04-24T02:53:55;10.38;;;6.95;;
77105;SDS011;66057;54.718;18.426;2023-04-24T02:56:21;11.70;;;7.10;;
77105;SDS011;66057;54.718;18.426;2023-04-24T02:58:46;9.63;;;7.32;;
77105;SDS011;66057;54.718;18.426;2023-04-24T03:01:13;12.50;;;6.88;;
77105;SDS011;66057;54.718;18.426;2023-04-24T03:03:39;10.15;;;6.20;;
77105;SDS011;66057;54.718;18.426;2023-04-24T03:06:05;12.07;;;6.95;;
77105;SDS011;66057;54.718;18.426;2023-04-24T03:08:33;9.27;;;6.45;;
77105;SDS011;66057;54.718;18.426;2023-04-24T03:11:00;9.80;;;6.50;;
77105;SDS011;66057;54.718;18.426;2023-04-24T03:15:52;10.57;;;6.95;;
77105;SDS011;66057;54.718;18.426;2023-04-24T03:18:19;12.65;;;6.63;;
77105;SDS011;66057;54.718;18.426;2023-04-24T03:20:45;12.07;;;6.70;;
77105;SDS011;66057;54.718;18.426;2023-04-24T03:23:11;11.13;;;7.38;;
77105;SDS011;66057;54.718;18.426;2023-04-24T03:25:41;10.85;;;6.50;;
77105;SDS011;66057;54.718;18.426;2023-04-24T03:28:08;12.15;;;7.47;;
77105;SDS011;66057;54.718;18.426;2023-04-24T03:30:34;12.00;;;7.20;;
77105;SDS011;66057;54.718;18.426;2023-04-24T03:32:59;10.35;;;5.93;;
77105;SDS011;66057;54.718;18.426;2023-04-24T03:35:25;14.77;;;7.95;;
77105;SDS011;66057;54.718;18.426;2023-04-24T03:37:52;13.85;;;7.07;;
77105;SDS011;66057;54.718;18.426;2023-04-24T03:40:18;12.55;;;6.47;;
77105;SDS011;66057;54.718;18.426;2023-04-24T03:42:43;13.85;;;7.22;;
77105;SDS011;66057;54.718;18.426;2023-04-24T03:45:11;12.93;;;7.07;;
77105;SDS011;66057;54.718;18.426;2023-04-24T03:50:03;11.52;;;6.97;;
77105;SDS011;66057;54.718;18.426;2023-04-24T03:52:29;12.90;;;7.50;;
77105;SDS011;66057;54.718;18.426;2023-04-24T03:54:55;16.85;;;7.95;;
77105;SDS011;66057;54.718;18.426;2023-04-24T03:57:21;15.75;;;8.52;;
77105;SDS011;66057;54.718;18.426;2023-04-24T03:59:47;13.82;;;8.70;;
77105;SDS011;66057;54.718;18.426;2023-04-24T04:02:13;19.50;;;9.20;;
77105;SDS011;66057;54.718;18.426;2023-04-24T04:07:05;14.13;;;7.45;;
77105;SDS011;66057;54.718;18.426;2023-04-24T04:09:32;15.95;;;7.88;;
77105;SDS011;66057;54.718;18.426;2023-04-24T04:11:58;13.07;;;7.70;;
77105;SDS011;66057;54.718;18.426;2023-04-24T04:14:24;19.50;;;8.35;;
77105;SDS011;66057;54.718;18.426;2023-04-24T04:16:49;16.85;;;8.65;;
77105;SDS011;66057;54.718;18.426;2023-04-24T04:21:41;14.75;;;7.25;;
77105;SDS011;66057;54.718;18.426;2023-04-24T04:24:07;19.98;;;8.73;;
77105;SDS011;66057;54.718;18.426;2023-04-24T04:26:33;20.92;;;9.18;;
77105;SDS011;66057;54.718;18.426;2023-04-24T04:28:59;22.30;;;10.48;;
77105;SDS011;66057;54.718;18.426;2023-04-24T04:31:25;22.13;;;9.88;;
77105;SDS011;66057;54.718;18.426;2023-04-24T04:33:51;19.75;;;9.73;;
77105;SDS011;66057;54.718;18.426;2023-04-24T04:36:17;23.17;;;10.55;;
77105;SDS011;66057;54.718;18.426;2023-04-24T04:38:43;26.17;;;10.98;;
77105;SDS011;66057;54.718;18.426;2023-04-24T04:41:09;22.92;;;11.70;;
77105;SDS011;66057;54.718;18.426;2023-04-24T04:43:36;23.85;;;10.93;;
77105;SDS011;66057;54.718;18.426;2023-04-24T04:46:03;23.50;;;10.82;;
77105;SDS011;66057;54.718;18.426;2023-04-24T04:48:29;25.95;;;10.95;;
77105;SDS011;66057;54.718;18.426;2023-04-24T04:50:56;26.27;;;12.55;;
77105;SDS011;66057;54.718;18.426;2023-04-24T04:55:48;20.30;;;9.30;;
77105;SDS011;66057;54.718;18.426;2023-04-24T04:58:14;25.40;;;10.45;;
77105;SDS011;66057;54.718;18.426;2023-04-24T05:00:40;26.05;;;10.48;;
77105;SDS011;66057;54.718;18.426;2023-04-24T05:03:06;31.15;;;11.45;;
77105;SDS011;66057;54.718;18.426;2023-04-24T05:05:32;24.02;;;8.95;;
77105;SDS011;66057;54.718;18.426;2023-04-24T05:08:00;29.23;;;11.45;;
77105;SDS011;66057;54.718;18.426;2023-04-24T05:10:25;25.88;;;10.15;;
77105;SDS011;66057;54.718;18.426;2023-04-24T05:12:51;30.42;;;11.63;;
77105;SDS011;66057;54.718;18.426;2023-04-24T05:15:17;31.30;;;11.25;;
77105;SDS011;66057;54.718;18.426;2023-04-24T05:17:43;35.90;;;12.13;;
77105;SDS011;66057;54.718;18.426;2023-04-24T05:20:08;31.70;;;11.80;;
77105;SDS011;66057;54.718;18.426;2023-04-24T05:22:35;31.58;;;11.25;;
77105;SDS011;66057;54.718;18.426;2023-04-24T05:25:01;31.90;;;11.75;;
77105;SDS011;66057;54.718;18.426;2023-04-24T05:29:53;28.55;;;10.32;;
77105;SDS011;66057;54.718;18.426;2023-04-24T05:32:18;31.90;;;11.38;;
77105;SDS011;66057;54.718;18.426;2023-04-24T05:34:45;35.20;;;11.90;;
77105;SDS011;66057;54.718;18.426;2023-04-24T05:37:11;38.47;;;12.80;;
77105;SDS011;66057;54.718;18.426;2023-04-24T05:39:37;36.42;;;11.93;;
77105;SDS011;66057;54.718;18.426;2023-04-24T05:42:04;38.60;;;12.63;;
77105;SDS011;66057;54.718;18.426;2023-04-24T05:46:56;36.53;;;10.57;;
77105;SDS011;66057;54.718;18.426;2023-04-24T05:49:22;26.75;;;9.88;;
77105;SDS011;66057;54.718;18.426;2023-04-24T05:51:48;32.70;;;10.00;;
77105;SDS011;66057;54.718;18.426;2023-04-24T05:54:13;36.80;;;11.18;;
77105;SDS011;66057;54.718;18.426;2023-04-24T05:56:39;33.70;;;9.80;;
77105;SDS011;66057;54.718;18.426;2023-04-24T05:59:05;45.38;;;11.60;;
77105;SDS011;66057;54.718;18.426;2023-04-24T06:01:30;37.90;;;9.43;;
77105;SDS011;66057;54.718;18.426;2023-04-24T06:03:56;39.30;;;11.82;;
77105;SDS011;66057;54.718;18.426;2023-04-24T06:06:23;39.63;;;10.00;;
77105;SDS011;66057;54.718;18.426;2023-04-24T06:08:49;44.30;;;11.15;;
77105;SDS011;66057;54.718;18.426;2023-04-24T06:11:15;40.00;;;10.93;;
77105;SDS011;66057;54.718;18.426;2023-04-24T06:13:42;41.13;;;10.95;;
77105;SDS011;66057;54.718;18.426;2023-04-24T06:16:08;24.70;;;10.27;;
77105;SDS011;66057;54.718;18.426;2023-04-24T06:18:34;41.05;;;10.57;;
77105;SDS011;66057;54.718;18.426;2023-04-24T06:21:00;34.50;;;9.40;;
77105;SDS011;66057;54.718;18.426;2023-04-24T06:23:25;26.38;;;9.10;;
77105;SDS011;66057;54.718;18.426;2023-04-24T06:25:51;41.28;;;11.55;;
77105;SDS011;66057;54.718;18.426;2023-04-24T06:28:17;32.08;;;9.98;;
77105;SDS011;66057;54.718;18.426;2023-04-24T06:30:44;38.95;;;11.43;;
77105;SDS011;66057;54.718;18.426;2023-04-24T06:35:37;36.20;;;9.32;;
77105;SDS011;66057;54.718;18.426;2023-04-24T06:38:03;29.45;;;9.23;;
77105;SDS011;66057;54.718;18.426;2023-04-24T06:40:29;27.02;;;9.35;;
77105;SDS011;66057;54.718;18.426;2023-04-24T06:42:55;16.58;;;7.22;;
77105;SDS011;66057;54.718;18.426;2023-04-24T06:45:26;16.25;;;8.30;;
77105;SDS011;66057;54.718;18.426;2023-04-24T06:47:52;14.38;;;7.72;;
77105;SDS011;66057;54.718;18.426;2023-04-24T06:50:17;14.00;;;7.72;;
77105;SDS011;66057;54.718;18.426;2023-04-24T06:52:43;11.13;;;5.53;;
77105;SDS011;66057;54.718;18.426;2023-04-24T06:55:09;11.95;;;7.18;;
77105;SDS011;66057;54.718;18.426;2023-04-24T07:00:02;7.68;;;5.15;;
77105;SDS011;66057;54.718;18.426;2023-04-24T07:02:30;9.40;;;5.85;;
77105;SDS011;66057;54.718;18.426;2023-04-24T07:04:55;8.48;;;5.13;;
77105;SDS011;66057;54.718;18.426;2023-04-24T07:07:22;8.80;;;4.95;;
77105;SDS011;66057;54.718;18.426;2023-04-24T07:09:55;7.18;;;4.63;;
77105;SDS011;66057;54.718;18.426;2023-04-24T07:12:21;7.13;;;4.22;;
77105;SDS011;66057;54.718;18.426;2023-04-24T07:14:47;7.68;;;4.18;;
77105;SDS011;66057;54.718;18.426;2023-04-24T07:17:13;6.25;;;3.80;;
77105;SDS011;66057;54.718;18.426;2023-04-24T07:19:40;8.00;;;4.70;;
77105;SDS011;66057;54.718;18.426;2023-04-24T07:22:06;7.38;;;4.82;;
77105;SDS011;66057;54.718;18.426;2023-04-24T07:24:32;5.18;;;3.72;;
77105;SDS011;66057;54.718;18.426;2023-04-24T07:26:58;4.95;;;3.80;;
77105;SDS011;66057;54.718;18.426;2023-04-24T07:29:23;4.68;;;3.85;;
77105;SDS011;66057;54.718;18.426;2023-04-24T07:31:50;3.95;;;2.40;;
77105;SDS011;66057;54.718;18.426;2023-04-24T07:34:15;2.25;;;2.00;;
77105;SDS011;66057;54.718;18.426;2023-04-24T07:36:42;2.13;;;1.92;;
77105;SDS011;66057;54.718;18.426;2023-04-24T07:39:07;2.10;;;1.92;;
77105;SDS011;66057;54.718;18.426;2023-04-24T07:41:33;1.70;;;1.60;;
77105;SDS011;66057;54.718;18.426;2023-04-24T07:43:59;1.80;;;1.70;;
77105;SDS011;66057;54.718;18.426;2023-04-24T07:46:25;2.20;;;2.00;;
77105;SDS011;66057;54.718;18.426;2023-04-24T07:48:54;1.95;;;1.73;;
77105;SDS011;66057;54.718;18.426;2023-04-24T07:51:20;1.48;;;1.38;;
77105;SDS011;66057;54.718;18.426;2023-04-24T07:53:46;1.25;;;1.15;;
77105;SDS011;66057;54.718;18.426;2023-04-24T07:56:13;1.15;;;1.15;;
77105;SDS011;66057;54.718;18.426;2023-04-24T07:58:39;1.23;;;1.13;;
77105;SDS011;66057;54.718;18.426;2023-04-24T08:01:07;1.45;;;1.35;;
77105;SDS011;66057;54.718;18.426;2023-04-24T08:03:34;1.15;;;1.10;;
77105;SDS011;66057;54.718;18.426;2023-04-24T08:06:00;1.10;;;0.98;;
77105;SDS011;66057;54.718;18.426;2023-04-24T08:08:26;0.90;;;0.90;;
77105;SDS011;66057;54.718;18.426;2023-04-24T08:10:52;1.25;;;1.15;;
77105;SDS011;66057;54.718;18.426;2023-04-24T08:13:17;1.30;;;1.20;;
77105;SDS011;66057;54.718;18.426;2023-04-24T08:15:43;1.23;;;1.13;;
77105;SDS011;66057;54.718;18.426;2023-04-24T08:18:08;1.20;;;1.10;;
77105;SDS011;66057;54.718;18.426;2023-04-24T08:20:37;1.30;;;1.20;;
77105;SDS011;66057;54.718;18.426;2023-04-24T08:23:02;1.00;;;1.00;;
77105;SDS011;66057;54.718;18.426;2023-04-24T08:25:28;1.00;;;0.95;;
77105;SDS011;66057;54.718;18.426;2023-04-24T08:27:53;0.80;;;0.80;;
77105;SDS011;66057;54.718;18.426;2023-04-24T08:30:20;1.13;;;0.90;;
77105;SDS011;66057;54.718;18.426;2023-04-24T08:32:45;0.70;;;0.70;;
77105;SDS011;66057;54.718;18.426;2023-04-24T08:35:11;0.80;;;0.80;;
77105;SDS011;66057;54.718;18.426;2023-04-24T08:40:06;0.70;;;0.70;;
77105;SDS011;66057;54.718;18.426;2023-04-24T08:42:38;1.02;;;0.90;;
77105;SDS011;66057;54.718;18.426;2023-04-24T08:45:05;1.20;;;1.13;;
77105;SDS011;66057;54.718;18.426;2023-04-24T08:47:31;1.27;;;1.17;;
77105;SDS011;66057;54.718;18.426;2023-04-24T08:49:58;1.05;;;0.98;;
77105;SDS011;66057;54.718;18.426;2023-04-24T08:52:25;0.77;;;0.77;;
77105;SDS011;66057;54.718;18.426;2023-04-24T08:54:55;0.98;;;0.90;;
77105;SDS011;66057;54.718;18.426;2023-04-24T08:59:47;1.10;;;1.10;;
77105;SDS011;66057;54.718;18.426;2023-04-24T09:02:14;1.15;;;1.05;;
77105;SDS011;66057;54.718;18.426;2023-04-24T09:04:41;1.20;;;1.20;;
77105;SDS011;66057;54.718;18.426;2023-04-24T09:07:09;1.33;;;1.00;;
77105;SDS011;66057;54.718;18.426;2023-04-24T09:09:36;1.10;;;1.00;;
77105;SDS011;66057;54.718;18.426;2023-04-24T09:12:03;1.15;;;0.98;;
77105;SDS011;66057;54.718;18.426;2023-04-24T09:14:29;1.50;;;1.25;;
77105;SDS011;66057;54.718;18.426;2023-04-24T09:16:57;1.50;;;1.40;;
77105;SDS011;66057;54.718;18.426;2023-04-24T09:19:22;1.58;;;1.48;;
77105;SDS011;66057;54.718;18.426;2023-04-24T09:21:48;1.75;;;1.65;;
77105;SDS011;66057;54.718;18.426;2023-04-24T09:24:15;2.13;;;1.92;;
77105;SDS011;66057;54.718;18.426;2023-04-24T09:26:46;4.47;;;2.67;;
77105;SDS011;66057;54.718;18.426;2023-04-24T09:29:15;3.38;;;2.78;;
77105;SDS011;66057;54.718;18.426;2023-04-24T09:31:42;3.92;;;3.08;;
77105;SDS011;66057;54.718;18.426;2023-04-24T09:34:09;3.47;;;2.35;;
77105;SDS011;66057;54.718;18.426;2023-04-24T09:36:35;5.20;;;3.22;;
77105;SDS011;66057;54.718;18.426;2023-04-24T09:39:06;4.47;;;2.65;;
77105;SDS011;66057;54.718;18.426;2023-04-24T09:44:21;5.10;;;2.25;;
77105;SDS011;66057;54.718;18.426;2023-04-24T09:46:58;4.70;;;3.28;;
77105;SDS011;66057;54.718;18.426;2023-04-24T09:49:28;7.72;;;3.85;;
77105;SDS011;66057;54.718;18.426;2023-04-24T09:52:10;5.63;;;3.45;;
77105;SDS011;66057;54.718;18.426;2023-04-24T09:54:37;7.25;;;3.50;;
77105;SDS011;66057;54.718;18.426;2023-04-24T09:57:03;6.65;;;3.40;;
77105;SDS011;66057;54.718;18.426;2023-04-24T09:59:29;6.43;;;3.35;;
77105;SDS011;66057;54.718;18.426;2023-04-24T10:01:56;5.95;;;3.80;;
77105;SDS011;66057;54.718;18.426;2023-04-24T10:04:24;6.82;;;3.47;;
77105;SDS011;66057;54.718;18.426;2023-04-24T10:06:54;6.80;;;4.32;;
77105;SDS011;66057;54.718;18.426;2023-04-24T10:09:25;7.18;;;4.10;;
77105;SDS011;66057;54.718;18.426;2023-04-24T10:11:53;7.85;;;4.38;;
77105;SDS011;66057;54.718;18.426;2023-04-24T10:14:21;7.93;;;4.22;;
77105;SDS011;66057;54.718;18.426;2023-04-24T10:16:54;8.30;;;4.25;;
77105;SDS011;66057;54.718;18.426;2023-04-24T10:19:24;8.73;;;4.40;;
77105;SDS011;66057;54.718;18.426;2023-04-24T10:21:51;9.63;;;4.10;;
77105;SDS011;66057;54.718;18.426;2023-04-24T10:24:18;6.97;;;4.03;;
77105;SDS011;66057;54.718;18.426;2023-04-24T10:26:46;8.68;;;4.38;;
77105;SDS011;66057;54.718;18.426;2023-04-24T10:29:16;8.93;;;4.68;;
77105;SDS011;66057;54.718;18.426;2023-04-24T10:31:43;6.35;;;3.25;;
77105;SDS011;66057;54.718;18.426;2023-04-24T10:34:10;7.28;;;3.88;;
77105;SDS011;66057;54.718;18.426;2023-04-24T10:36:40;7.85;;;4.35;;
77105;SDS011;66057;54.718;18.426;2023-04-24T10:39:09;9.07;;;4.00;;
77105;SDS011;66057;54.718;18.426;2023-04-24T10:41:40;7.40;;;3.92;;
77105;SDS011;66057;54.718;18.426;2023-04-24T10:46:32;9.85;;;5.13;;
77105;SDS011;66057;54.718;18.426;2023-04-24T10:48:57;8.25;;;4.07;;
77105;SDS011;66057;54.718;18.426;2023-04-24T10:51:24;9.45;;;5.00;;
77105;SDS011;66057;54.718;18.426;2023-04-24T10:54:23;12.38;;;5.47;;
77105;SDS011;66057;54.718;18.426;2023-04-24T10:56:50;9.27;;;5.07;;
77105;SDS011;66057;54.718;18.426;2023-04-24T11:01:53;11.88;;;6.13;;
77105;SDS011;66057;54.718;18.426;2023-04-24T11:04:31;9.95;;;5.72;;
77105;SDS011;66057;54.718;18.426;2023-04-24T11:07:04;9.63;;;4.40;;
77105;SDS011;66057;54.718;18.426;2023-04-24T11:09:33;8.23;;;4.97;;
77105;SDS011;66057;54.718;18.426;2023-04-24T11:12:08;7.80;;;4.50;;
77105;SDS011;66057;54.718;18.426;2023-04-24T11:17:37;11.75;;;6.70;;
77105;SDS011;66057;54.718;18.426;2023-04-24T11:20:08;11.80;;;6.38;;
77105;SDS011;66057;54.718;18.426;2023-04-24T11:22:38;11.27;;;7.28;;
77105;SDS011;66057;54.718;18.426;2023-04-24T11:25:05;11.02;;;6.38;;
77105;SDS011;66057;54.718;18.426;2023-04-24T11:27:38;11.52;;;6.72;;
77105;SDS011;66057;54.718;18.426;2023-04-24T11:30:11;9.98;;;6.47;;
77105;SDS011;66057;54.718;18.426;2023-04-24T11:32:41;12.32;;;6.40;;
77105;SDS011;66057;54.718;18.426;2023-04-24T11:35:19;11.07;;;5.93;;
77105;SDS011;66057;54.718;18.426;2023-04-24T11:37:52;9.35;;;6.20;;
77105;SDS011;66057;54.718;18.426;2023-04-24T11:40:19;9.07;;;5.60;;
77105;SDS011;66057;54.718;18.426;2023-04-24T11:42:49;10.50;;;6.90;;
77105;SDS011;66057;54.718;18.426;2023-04-24T11:45:16;12.95;;;8.07;;
77105;SDS011;66057;54.718;18.426;2023-04-24T11:47:44;12.15;;;6.93;;
77105;SDS011;66057;54.718;18.426;2023-04-24T11:50:11;17.90;;;9.18;;
77105;SDS011;66057;54.718;18.426;2023-04-24T11:52:39;14.02;;;9.63;;
77105;SDS011;66057;54.718;18.426;2023-04-24T11:55:27;17.67;;;9.85;;
77105;SDS011;66057;54.718;18.426;2023-04-24T11:57:54;14.07;;;9.07;;
77105;SDS011;66057;54.718;18.426;2023-04-24T12:03:07;15.63;;;10.18;;
77105;SDS011;66057;54.718;18.426;2023-04-24T12:05:34;13.73;;;9.88;;
77105;SDS011;66057;54.718;18.426;2023-04-24T12:08:00;17.00;;;10.43;;
77105;SDS011;66057;54.718;18.426;2023-04-24T12:10:27;15.32;;;10.65;;
77105;SDS011;66057;54.718;18.426;2023-04-24T12:12:55;15.43;;;10.98;;
77105;SDS011;66057;54.718;18.426;2023-04-24T12:15:22;18.70;;;11.50;;
77105;SDS011;66057;54.718;18.426;2023-04-24T12:20:15;15.75;;;8.93;;
77105;SDS011;66057;54.718;18.426;2023-04-24T12:22:58;14.77;;;10.13;;
77105;SDS011;66057;54.718;18.426;2023-04-24T12:25:25;16.05;;;11.38;;
77105;SDS011;66057;54.718;18.426;2023-04-24T12:27:53;15.95;;;10.75;;
77105;SDS011;66057;54.718;18.426;2023-04-24T12:30:20;16.75;;;11.82;;
77105;SDS011;66057;54.718;18.426;2023-04-24T12:32:47;14.82;;;9.63;;
77105;SDS011;66057;54.718;18.426;2023-04-24T12:35:18;18.40;;;9.70;;
77105;SDS011;66057;54.718;18.426;2023-04-24T12:37:46;16.27;;;9.73;;
77105;SDS011;66057;54.718;18.426;2023-04-24T12:40:12;17.05;;;11.50;;
77105;SDS011;66057;54.718;18.426;2023-04-24T12:42:47;16.75;;;11.57;;
77105;SDS011;66057;54.718;18.426;2023-04-24T12:45:15;17.05;;;11.02;;
77105;SDS011;66057;54.718;18.426;2023-04-24T12:47:42;19.75;;;11.68;;
77105;SDS011;66057;54.718;18.426;2023-04-24T12:50:10;17.00;;;12.60;;
77105;SDS011;66057;54.718;18.426;2023-04-24T12:52:39;17.92;;;11.30;;
77105;SDS011;66057;54.718;18.426;2023-04-24T12:57:37;20.92;;;11.93;;
77105;SDS011;66057;54.718;18.426;2023-04-24T13:00:15;21.80;;;13.02;;
77105;SDS011;66057;54.718;18.426;2023-04-24T13:02:41;20.95;;;14.00;;
77105;SDS011;66057;54.718;18.426;2023-04-24T13:05:08;16.17;;;12.60;;
77105;SDS011;66057;54.718;18.426;2023-04-24T13:07:34;16.95;;;12.23;;
77105;SDS011;66057;54.718;18.426;2023-04-24T13:10:00;18.13;;;12.38;;
77105;SDS011;66057;54.718;18.426;2023-04-24T13:12:26;17.83;;;12.15;;
77105;SDS011;66057;54.718;18.426;2023-04-24T13:14:52;18.42;;;12.60;;
77105;SDS011;66057;54.718;18.426;2023-04-24T13:17:19;18.75;;;12.48;;
77105;SDS011;66057;54.718;18.426;2023-04-24T13:19:45;17.88;;;12.40;;
77105;SDS011;66057;54.718;18.426;2023-04-24T13:24:37;12.75;;;9.77;;
77105;SDS011;66057;54.718;18.426;2023-04-24T13:27:05;12.13;;;9.50;;
77105;SDS011;66057;54.718;18.426;2023-04-24T13:29:30;11.55;;;6.75;;
77105;SDS011;66057;54.718;18.426;2023-04-24T13:31:56;12.35;;;7.35;;
77105;SDS011;66057;54.718;18.426;2023-04-24T13:34:25;11.15;;;6.85;;
77105;SDS011;66057;54.718;18.426;2023-04-24T13:36:52;12.35;;;7.53;;
77105;SDS011;66057;54.718;18.426;2023-04-24T13:39:19;9.07;;;6.18;;
77105;SDS011;66057;54.718;18.426;2023-04-24T13:41:45;12.85;;;7.38;;
77105;SDS011;66057;54.718;18.426;2023-04-24T13:44:13;8.73;;;6.32;;
77105;SDS011;66057;54.718;18.426;2023-04-24T13:46:40;10.85;;;5.65;;
77105;SDS011;66057;54.718;18.426;2023-04-24T13:49:06;5.50;;;4.97;;
77105;SDS011;66057;54.718;18.426;2023-04-24T13:51:32;8.95;;;5.00;;
77105;SDS011;66057;54.718;18.426;2023-04-24T13:53:58;9.10;;;4.85;;
77105;SDS011;66057;54.718;18.426;2023-04-24T13:56:25;4.78;;;4.10;;
77105;SDS011;66057;54.718;18.426;2023-04-24T13:58:51;5.55;;;3.40;;
77105;SDS011;66057;54.718;18.426;2023-04-24T14:01:16;7.32;;;3.05;;
77105;SDS011;66057;54.718;18.426;2023-04-24T14:03:42;5.55;;;2.78;;
77105;SDS011;66057;54.718;18.426;2023-04-24T14:06:11;5.05;;;3.20;;
77105;SDS011;66057;54.718;18.426;2023-04-24T14:08:36;3.28;;;2.65;;
77105;SDS011;66057;54.718;18.426;2023-04-24T14:11:02;3.72;;;2.00;;
77105;SDS011;66057;54.718;18.426;2023-04-24T14:13:27;4.45;;;2.85;;
77105;SDS011;66057;54.718;18.426;2023-04-24T14:15:54;4.13;;;2.33;;
77105;SDS011;66057;54.718;18.426;2023-04-24T14:18:19;7.65;;;3.45;;
77105;SDS011;66057;54.718;18.426;2023-04-24T14:23:11;4.10;;;2.80;;
77105;SDS011;66057;54.718;18.426;2023-04-24T14:25:38;7.85;;;3.20;;
77105;SDS011;66057;54.718;18.426;2023-04-24T14:28:05;5.47;;;3.05;;
77105;SDS011;66057;54.718;18.426;2023-04-24T14:30:31;4.93;;;2.92;;
77105;SDS011;66057;54.718;18.426;2023-04-24T14:32:57;4.68;;;3.38;;
77105;SDS011;66057;54.718;18.426;2023-04-24T14:35:22;4.53;;;3.30;;
77105;SDS011;66057;54.718;18.426;2023-04-24T14:37:48;3.30;;;2.70;;
77105;SDS011;66057;54.718;18.426;2023-04-24T14:42:40;7.38;;;3.50;;
77105;SDS011;66057;54.718;18.426;2023-04-24T14:45:06;5.15;;;3.70;;
77105;SDS011;66057;54.718;18.426;2023-04-24T14:47:33;5.13;;;3.58;;
77105;SDS011;66057;54.718;18.426;2023-04-24T14:49:59;9.55;;;3.33;;
77105;SDS011;66057;54.718;18.426;2023-04-24T14:52:25;5.50;;;3.15;;
77105;SDS011;66057;54.718;18.426;2023-04-24T14:54:50;9.82;;;3.42;;
77105;SDS011;66057;54.718;18.426;2023-04-24T14:57:16;6.97;;;3.97;;
77105;SDS011;66057;54.718;18.426;2023-04-24T14:59:42;4.45;;;3.33;;
77105;SDS011;66057;54.718;18.426;2023-04-24T15:02:07;7.32;;;3.00;;
77105;SDS011;66057;54.718;18.426;2023-04-24T15:04:33;4.20;;;3.42;;
77105;SDS011;66057;54.718;18.426;2023-04-24T15:06:58;5.88;;;2.58;;
77105;SDS011;66057;54.718;18.426;2023-04-24T15:09:24;7.32;;;3.40;;
77105;SDS011;66057;54.718;18.426;2023-04-24T15:11:51;2.47;;;1.83;;
77105;SDS011;66057;54.718;18.426;2023-04-24T15:14:17;3.47;;;1.45;;
77105;SDS011;66057;54.718;18.426;2023-04-24T15:16:43;2.88;;;1.73;;
77105;SDS011;66057;54.718;18.426;2023-04-24T15:19:10;6.22;;;2.50;;
77105;SDS011;66057;54.718;18.426;2023-04-24T15:21:36;2.25;;;1.73;;
77105;SDS011;66057;54.718;18.426;2023-04-24T15:24:04;4.95;;;2.50;;
77105;SDS011;66057;54.718;18.426;2023-04-24T15:26:30;3.03;;;1.45;;